createdAt,value
2018-03-23T00:01:56.336Z,4.55
2018-03-23T00:04:23.779Z,3.10
2018-03-23T00:06:51.230Z,3.58
2018-03-23T00:09:18.666Z,2.60
2018-03-23T00:11:46.878Z,2.50
2018-03-23T00:14:14.327Z,2.50
2018-03-23T00:16:41.759Z,2.00
2018-03-23T00:19:09.240Z,2.57
2018-03-23T00:21:36.616Z,2.40
2018-03-23T00:24:04.076Z,2.23
2018-03-23T00:26:31.501Z,2.40
2018-03-23T00:28:58.925Z,1.90
2018-03-23T00:31:27.156Z,2.40
2018-03-23T00:33:54.628Z,1.80
2018-03-23T00:36:22.062Z,1.95
2018-03-23T00:38:49.514Z,2.00
2018-03-23T00:41:16.946Z,1.95
2018-03-23T00:43:44.375Z,2.75
2018-03-23T00:46:12.577Z,2.70
2018-03-23T00:48:40.045Z,2.80
2018-03-23T00:51:07.463Z,4.50
2018-03-23T00:53:35.667Z,5.57
2018-03-23T00:56:03.113Z,5.70
2018-03-23T00:58:30.550Z,6.00
2018-03-23T01:00:58.756Z,5.90
2018-03-23T01:03:26.180Z,5.87
2018-03-23T01:05:54.389Z,5.80
2018-03-23T01:08:21.811Z,5.20
2018-03-23T01:10:49.993Z,5.10
2018-03-23T01:13:17.422Z,4.15
2018-03-23T01:15:44.863Z,3.87
2018-03-23T01:18:12.279Z,3.70
2018-03-23T01:20:39.716Z,2.75
2018-03-23T01:23:07.926Z,3.00
2018-03-23T01:25:35.402Z,3.10
2018-03-23T01:28:02.855Z,3.00
2018-03-23T01:30:30.296Z,2.80
2018-03-23T01:32:57.754Z,2.60
2018-03-23T01:35:25.231Z,2.08
2018-03-23T01:37:52.670Z,1.70
2018-03-23T01:40:20.110Z,1.40
2018-03-23T01:42:47.544Z,1.70
2018-03-23T01:45:15.780Z,2.00
2018-03-23T01:47:43.322Z,2.15
2018-03-23T01:50:10.777Z,2.00
2018-03-23T01:52:38.216Z,2.60
2018-03-23T01:55:05.702Z,2.90
2018-03-23T01:57:33.158Z,2.60
2018-03-23T02:00:00.586Z,3.58
2018-03-23T02:02:28.026Z,3.30
2018-03-23T02:04:55.522Z,3.25
2018-03-23T02:07:22.986Z,3.17
2018-03-23T02:09:51.170Z,3.05
2018-03-23T02:12:18.598Z,3.97
2018-03-23T02:14:46.053Z,4.35
2018-03-23T02:17:13.482Z,4.75
2018-03-23T02:19:40.957Z,4.75
2018-03-23T02:22:08.381Z,5.00
2018-03-23T02:24:36.185Z,4.43
2018-03-23T02:27:03.598Z,5.20
2018-03-23T02:29:31.039Z,5.40
2018-03-23T02:31:59.256Z,5.43
2018-03-23T02:34:26.690Z,7.40
2018-03-23T02:36:54.139Z,6.47
2018-03-23T02:39:22.440Z,6.07
2018-03-23T02:41:49.866Z,6.65
2018-03-23T02:44:18.070Z,7.10
2018-03-23T02:46:45.499Z,6.97
2018-03-23T02:49:12.995Z,6.82
2018-03-23T02:51:40.433Z,6.30
2018-03-23T02:54:07.851Z,7.43
2018-03-23T02:56:36.043Z,6.82
2018-03-23T02:59:03.491Z,7.45
2018-03-23T03:01:31.690Z,7.93
2018-03-23T03:03:59.115Z,5.90
2018-03-23T03:06:27.311Z,6.60
2018-03-23T03:08:54.733Z,6.85
2018-03-23T03:11:22.153Z,6.57
2018-03-23T03:13:49.594Z,7.57
2018-03-23T03:16:17.066Z,7.00
2018-03-23T03:18:44.505Z,6.70
2018-03-23T03:21:11.986Z,7.20
2018-03-23T03:23:39.436Z,6.70
2018-03-23T03:26:06.874Z,6.28
2018-03-23T03:28:34.307Z,6.85
2018-03-23T03:31:01.807Z,6.43
2018-03-23T03:33:29.253Z,5.70
2018-03-23T03:35:56.833Z,5.47
2018-03-23T03:38:24.360Z,5.28
2018-03-23T03:40:51.829Z,6.72
2018-03-23T03:43:19.289Z,5.30
2018-03-23T03:45:46.735Z,5.85
2018-03-23T03:48:14.159Z,6.15
2018-03-23T03:50:41.596Z,6.35
2018-03-23T03:53:09.019Z,5.35
2018-03-23T03:55:36.458Z,5.65
2018-03-23T03:58:03.885Z,6.05
2018-03-23T04:00:31.364Z,5.50
2018-03-23T04:02:58.770Z,6.00
2018-03-23T04:05:26.201Z,7.10
2018-03-23T04:07:53.641Z,5.60
2018-03-23T04:10:21.088Z,4.20
2018-03-23T04:12:48.506Z,3.60
2018-03-23T04:15:16.750Z,3.10
2018-03-23T04:17:44.199Z,3.47
2018-03-23T04:20:11.755Z,3.45
2018-03-23T04:22:39.194Z,1.85
2018-03-23T04:25:06.609Z,1.90
2018-03-23T04:27:34.809Z,1.90
2018-03-23T04:30:02.246Z,1.10
2018-03-23T04:32:29.694Z,1.50
2018-03-23T04:34:57.126Z,1.80
2018-03-23T04:37:24.560Z,1.65
2018-03-23T04:39:52.031Z,1.70
2018-03-23T04:42:19.472Z,3.83
2018-03-23T04:44:47.115Z,2.67
2018-03-23T04:47:14.534Z,3.20
2018-03-23T04:49:42.713Z,2.80
2018-03-23T04:52:11.776Z,3.15
2018-03-23T04:54:39.217Z,3.67
2018-03-23T04:57:06.654Z,4.80
2018-03-23T04:59:34.092Z,3.85
2018-03-23T05:02:01.514Z,3.90
2018-03-23T05:04:29.723Z,3.70
2018-03-23T05:06:57.150Z,4.10
2018-03-23T05:09:25.362Z,3.78
2018-03-23T05:11:52.837Z,3.03
2018-03-23T05:14:20.264Z,4.07
2018-03-23T05:16:47.751Z,3.67
2018-03-23T05:19:15.215Z,3.80
2018-03-23T05:21:42.656Z,3.65
2018-03-23T05:24:10.147Z,4.20
2018-03-23T05:26:37.583Z,4.53
2018-03-23T05:29:05.027Z,5.00
2018-03-23T05:31:32.603Z,4.60
2018-03-23T05:34:00.046Z,4.93
2018-03-23T05:36:27.506Z,4.50
2018-03-23T05:38:54.943Z,4.82
2018-03-23T05:41:22.421Z,5.05
2018-03-23T05:43:49.859Z,5.87
2018-03-23T05:46:17.357Z,6.10
2018-03-23T05:48:44.766Z,5.50
2018-03-23T05:51:12.244Z,8.43
2018-03-23T05:53:39.803Z,5.65
2018-03-23T05:56:07.227Z,5.40
2018-03-23T05:58:36.241Z,5.70
2018-03-23T06:01:03.664Z,5.68
2018-03-23T06:03:31.144Z,7.72
2018-03-23T06:05:58.666Z,5.55
2018-03-23T06:08:26.899Z,7.30
2018-03-23T06:10:54.334Z,7.72
2018-03-23T06:13:21.788Z,7.25
2018-03-23T06:15:49.371Z,5.90
2018-03-23T06:18:16.837Z,6.70
2018-03-23T06:20:44.280Z,6.60
2018-03-23T06:23:11.749Z,5.90
2018-03-23T06:25:39.195Z,5.80
2018-03-23T06:28:06.730Z,6.20
2018-03-23T06:30:34.138Z,5.60
2018-03-23T06:33:02.462Z,8.55
2018-03-23T06:35:29.898Z,6.60
2018-03-23T06:37:57.333Z,10.00
2018-03-23T06:40:25.563Z,4.87
2018-03-23T06:42:52.991Z,5.53
2018-03-23T06:45:20.418Z,7.40
2018-03-23T06:47:48.649Z,6.90
2018-03-23T06:50:16.078Z,6.10
2018-03-23T06:52:43.531Z,6.12
2018-03-23T06:55:10.970Z,6.65
2018-03-23T06:57:39.306Z,6.70
2018-03-23T07:00:06.734Z,7.47
2018-03-23T07:02:34.223Z,6.70
2018-03-23T07:05:01.749Z,7.03
2018-03-23T07:07:29.217Z,7.50
2018-03-23T07:09:56.764Z,6.22
2018-03-23T07:12:24.187Z,7.35
2018-03-23T07:14:52.426Z,7.47
2018-03-23T07:17:19.896Z,5.75
2018-03-23T07:19:48.161Z,7.35
2018-03-23T07:22:15.584Z,8.40
2018-03-23T07:24:43.039Z,7.00
2018-03-23T07:27:10.498Z,7.97
2018-03-23T07:29:37.914Z,6.75
2018-03-23T07:32:06.103Z,6.87
2018-03-23T07:34:33.549Z,7.03
2018-03-23T07:37:01.742Z,6.53
2018-03-23T07:39:29.161Z,7.80
2018-03-23T07:41:57.349Z,8.03
2018-03-23T07:44:25.552Z,7.90
2018-03-23T07:46:52.995Z,12.48
2018-03-23T07:49:20.434Z,10.95
2018-03-23T07:51:47.898Z,9.73
2018-03-23T07:54:15.338Z,12.68
2018-03-23T07:56:43.586Z,16.25
2018-03-23T07:59:11.002Z,17.08
2018-03-23T08:01:38.438Z,15.20
2018-03-23T08:04:06.666Z,16.10
2018-03-23T08:06:34.111Z,13.90
2018-03-23T08:09:01.544Z,14.52
2018-03-23T08:11:29.116Z,12.73
2018-03-23T08:13:56.550Z,19.42
2018-03-23T08:16:24.039Z,12.15
2018-03-23T08:18:51.461Z,16.67
2018-03-23T08:21:19.655Z,15.57
2018-03-23T08:23:47.078Z,14.20
2018-03-23T08:26:15.287Z,12.68
2018-03-23T08:28:42.709Z,10.55
2018-03-23T08:31:11.033Z,11.23
2018-03-23T08:33:38.519Z,13.75
2018-03-23T08:36:05.950Z,13.80
2018-03-23T08:38:33.502Z,15.32
2018-03-23T08:41:00.946Z,14.27
2018-03-23T08:43:28.458Z,16.70
2018-03-23T08:45:55.988Z,15.17
2018-03-23T08:48:23.531Z,16.83
2018-03-23T08:50:50.958Z,16.37
2018-03-23T08:53:19.154Z,17.43
2018-03-23T08:55:46.613Z,15.77
2018-03-23T08:58:14.071Z,15.30
2018-03-23T09:00:41.514Z,18.58
2018-03-23T09:03:08.955Z,21.75
2018-03-23T09:05:37.182Z,14.43
2018-03-23T09:08:04.716Z,11.80
2018-03-23T09:10:32.143Z,14.20
2018-03-23T09:13:00.363Z,13.43
2018-03-23T09:15:27.813Z,13.00
2018-03-23T09:17:55.257Z,13.93
2018-03-23T09:20:22.740Z,12.30
2018-03-23T09:22:50.689Z,17.10
2018-03-23T09:25:18.126Z,18.90
2018-03-23T09:27:45.584Z,13.52
2018-03-23T09:30:13.012Z,13.50
2018-03-23T09:32:41.242Z,15.45
2018-03-23T09:35:08.706Z,12.82
2018-03-23T09:37:36.167Z,14.00
2018-03-23T09:40:03.599Z,15.30
2018-03-23T09:42:31.152Z,16.00
2018-03-23T09:44:58.577Z,14.45
2018-03-23T09:47:26.823Z,19.58
2018-03-23T09:49:54.286Z,13.77
2018-03-23T09:52:21.801Z,18.30
2018-03-23T09:54:49.242Z,17.33
2018-03-23T09:57:16.689Z,15.85
2018-03-23T09:59:45.888Z,11.55
2018-03-23T10:02:13.357Z,12.88
2018-03-23T10:04:40.854Z,13.43
2018-03-23T10:07:08.314Z,12.05
2018-03-23T10:09:35.934Z,13.40
2018-03-23T10:12:03.379Z,14.98
2018-03-23T10:14:30.870Z,14.15
2018-03-23T10:16:58.303Z,15.27
2018-03-23T10:19:25.753Z,14.45
2018-03-23T10:21:53.247Z,20.80
2018-03-23T10:24:20.706Z,14.70
2018-03-23T10:26:48.134Z,14.38
2018-03-23T10:29:15.599Z,12.85
2018-03-23T10:31:43.058Z,12.13
2018-03-23T10:34:10.601Z,13.43
2018-03-23T10:36:38.082Z,13.73
2018-03-23T10:39:05.540Z,13.27
2018-03-23T10:41:32.999Z,9.35
2018-03-23T10:44:00.437Z,9.98
2018-03-23T10:46:27.878Z,13.98
2018-03-23T10:48:55.340Z,13.90
2018-03-23T10:51:22.809Z,17.37
2018-03-23T10:53:50.538Z,15.23
2018-03-23T10:56:17.979Z,15.00
2018-03-23T10:58:46.207Z,15.53
2018-03-23T11:01:19.278Z,16.90
2018-03-23T11:03:46.756Z,17.47
2018-03-23T11:06:14.292Z,16.65
2018-03-23T11:08:41.716Z,17.10
2018-03-23T11:11:09.949Z,15.88
2018-03-23T11:13:37.402Z,17.67
2018-03-23T11:16:04.861Z,17.08
2018-03-23T11:18:32.296Z,17.13
2018-03-23T11:20:59.746Z,16.55
2018-03-23T11:23:27.190Z,16.02
2018-03-23T11:25:54.685Z,17.15
2018-03-23T11:28:22.150Z,17.62
2018-03-23T11:30:49.615Z,15.48
2018-03-23T11:33:17.171Z,15.33
2018-03-23T11:35:44.610Z,14.80
2018-03-23T11:38:12.144Z,17.52
2018-03-23T11:40:39.571Z,15.27
2018-03-23T11:43:07.815Z,14.43
2018-03-23T11:45:35.247Z,15.23
2018-03-23T11:48:02.708Z,13.40
2018-03-23T11:50:30.147Z,12.32
2018-03-23T11:52:57.588Z,12.40
2018-03-23T11:55:25.158Z,13.80
2018-03-23T11:57:52.638Z,12.90
2018-03-23T12:00:20.173Z,12.80
2018-03-23T12:02:47.684Z,10.80
2018-03-23T12:05:15.223Z,12.45
2018-03-23T12:07:42.695Z,13.77
2018-03-23T12:10:10.307Z,12.90
2018-03-23T12:12:37.785Z,13.27
2018-03-23T12:15:05.253Z,12.70
2018-03-23T12:17:32.714Z,12.45
2018-03-23T12:20:00.191Z,13.90
2018-03-23T12:22:27.631Z,12.25
2018-03-23T12:24:55.148Z,16.83
2018-03-23T12:27:22.706Z,12.03
2018-03-23T12:29:50.148Z,13.68
2018-03-23T12:32:17.617Z,12.07
2018-03-23T12:34:45.211Z,11.32
2018-03-23T12:37:12.742Z,11.25
2018-03-23T12:39:40.293Z,10.73
2018-03-23T12:42:07.733Z,11.18
2018-03-23T12:44:35.177Z,10.60
2018-03-23T12:47:02.654Z,10.50
2018-03-23T12:49:30.224Z,11.60
2018-03-23T12:51:57.647Z,9.05
2018-03-23T12:54:25.857Z,9.75
2018-03-23T12:56:53.655Z,9.30
2018-03-23T12:59:21.095Z,8.18
2018-03-23T13:01:48.551Z,9.60
2018-03-23T13:04:16.107Z,8.90
2018-03-23T13:06:43.643Z,8.30
2018-03-23T13:09:11.122Z,8.10
2018-03-23T13:11:38.590Z,8.02
2018-03-23T13:14:06.146Z,7.00
2018-03-23T13:16:33.579Z,6.70
2018-03-23T13:19:01.071Z,6.57
2018-03-23T13:21:28.525Z,7.00
2018-03-23T13:23:56.069Z,6.32
2018-03-23T13:26:23.514Z,7.10
2018-03-23T13:28:50.990Z,6.57
2018-03-23T13:31:18.428Z,7.12
2018-03-23T13:33:45.902Z,11.73
2018-03-23T13:36:13.331Z,7.40
2018-03-23T13:38:40.806Z,5.80
2018-03-23T13:41:08.267Z,7.47
2018-03-23T13:43:35.799Z,8.55
2018-03-23T13:46:03.728Z,8.32
2018-03-23T13:48:32.039Z,7.62
2018-03-23T13:50:59.550Z,7.43
2018-03-23T13:53:27.079Z,7.00
2018-03-23T13:55:55.280Z,9.00
2018-03-23T13:58:22.739Z,7.70
2018-03-23T14:00:56.539Z,8.80
2018-03-23T14:03:24.150Z,8.10
2018-03-23T14:05:51.578Z,7.30
2018-03-23T14:08:19.880Z,7.20
2018-03-23T14:10:47.298Z,7.60
2018-03-23T14:13:15.505Z,7.25
2018-03-23T14:15:43.083Z,7.85
2018-03-23T14:18:10.549Z,7.90
2018-03-23T14:20:38.006Z,8.35
2018-03-23T14:23:05.470Z,8.30
2018-03-23T14:25:32.970Z,8.48
2018-03-23T14:28:01.155Z,8.10
2018-03-23T14:30:28.626Z,7.78
2018-03-23T14:32:56.045Z,8.18
2018-03-23T14:35:23.751Z,8.50
2018-03-23T14:37:51.210Z,8.85
2018-03-23T14:40:18.692Z,9.82
2018-03-23T14:42:46.218Z,8.90
2018-03-23T14:45:13.715Z,11.77
2018-03-23T14:47:41.179Z,8.93
2018-03-23T14:50:08.686Z,7.85
2018-03-23T14:52:36.189Z,8.15
2018-03-23T14:55:03.619Z,9.63
2018-03-23T14:57:31.121Z,9.32
2018-03-23T14:59:59.351Z,8.80
2018-03-23T15:02:26.898Z,9.80
2018-03-23T15:04:54.551Z,9.60
2018-03-23T15:07:22.154Z,10.10
2018-03-23T15:09:50.077Z,10.57
2018-03-23T15:12:17.534Z,9.23
2018-03-23T15:14:44.977Z,9.70
2018-03-23T15:17:12.424Z,11.32
2018-03-23T15:19:39.901Z,11.65
2018-03-23T15:22:07.334Z,11.20
2018-03-23T15:24:34.829Z,10.40
2018-03-23T15:27:02.301Z,11.45
2018-03-23T15:29:29.755Z,11.60
2018-03-23T15:31:57.206Z,9.50
2018-03-23T15:34:24.667Z,8.95
2018-03-23T15:36:52.118Z,9.20
2018-03-23T15:39:19.579Z,12.00
2018-03-23T15:41:47.034Z,9.30
2018-03-23T15:44:14.504Z,13.65
2018-03-23T15:46:42.136Z,9.93
2018-03-23T15:49:09.563Z,9.60
2018-03-23T15:51:37.166Z,9.02
2018-03-23T15:54:05.462Z,10.38
2018-03-23T15:56:32.893Z,12.55
2018-03-23T15:59:00.374Z,10.50
2018-03-23T16:01:27.826Z,10.20
2018-03-23T16:03:55.266Z,11.12
2018-03-23T16:06:22.750Z,11.35
2018-03-23T16:08:50.979Z,11.80
2018-03-23T16:11:18.427Z,12.52
2018-03-23T16:13:45.887Z,11.83
2018-03-23T16:16:13.343Z,10.75
2018-03-23T16:18:40.799Z,12.15
2018-03-23T16:21:08.257Z,14.25
2018-03-23T16:23:35.717Z,13.60
2018-03-23T16:26:03.176Z,11.65
2018-03-23T16:28:30.731Z,12.70
2018-03-23T16:30:58.160Z,14.80
2018-03-23T16:33:26.366Z,11.77
2018-03-23T16:35:53.847Z,11.57
2018-03-23T16:38:21.415Z,14.43
2018-03-23T16:40:48.844Z,12.90
2018-03-23T16:43:16.290Z,14.00
2018-03-23T16:45:43.722Z,15.35
2018-03-23T16:48:11.301Z,12.70
2018-03-23T16:50:38.730Z,11.50
2018-03-23T16:53:06.997Z,14.05
2018-03-23T16:55:35.234Z,14.00
2018-03-23T16:58:02.765Z,14.68
2018-03-23T17:00:30.214Z,16.27
2018-03-23T17:02:57.778Z,13.68
2018-03-23T17:05:25.358Z,14.57
2018-03-23T17:07:52.823Z,16.10
2018-03-23T17:12:55.023Z,11.32
2018-03-23T17:15:22.637Z,16.40
2018-03-23T17:17:50.068Z,13.57
2018-03-23T17:20:18.325Z,13.33
2018-03-23T17:22:46.645Z,12.95
2018-03-23T17:25:14.130Z,13.93
2018-03-23T17:27:41.602Z,13.62
2018-03-23T17:30:09.251Z,12.10
2018-03-23T17:32:36.778Z,12.80
2018-03-23T17:35:04.208Z,13.23
2018-03-23T17:37:31.794Z,13.62
2018-03-23T17:39:59.303Z,13.93
2018-03-23T17:42:27.527Z,14.43
2018-03-23T17:44:55.083Z,13.50
2018-03-23T17:47:22.575Z,14.57
2018-03-23T17:49:49.990Z,17.17
2018-03-23T17:52:17.450Z,16.02
2018-03-23T17:54:44.867Z,14.50
2018-03-23T17:57:13.113Z,14.35
2018-03-23T17:59:40.639Z,14.32
2018-03-23T18:02:08.098Z,14.43
2018-03-23T18:04:35.534Z,15.32
2018-03-23T18:07:03.031Z,18.40
2018-03-23T18:09:30.571Z,20.85
2018-03-23T18:11:58.047Z,22.45
2018-03-23T18:14:25.496Z,20.02
2018-03-23T18:16:52.967Z,18.48
2018-03-23T18:19:20.439Z,17.30
2018-03-23T18:21:47.910Z,14.93
2018-03-23T18:24:15.367Z,15.50
2018-03-23T18:26:43.624Z,15.07
2018-03-23T18:29:11.075Z,18.15
2018-03-23T18:31:38.538Z,17.13
2018-03-23T18:34:06.158Z,18.85
2018-03-23T18:36:33.602Z,21.95
2018-03-23T18:39:01.084Z,26.90
2018-03-23T18:41:28.545Z,22.20
2018-03-23T18:43:56.061Z,22.40
2018-03-23T18:46:23.654Z,21.48
2018-03-23T18:48:51.125Z,20.88
2018-03-23T18:51:19.316Z,18.83
2018-03-23T18:53:46.751Z,20.23
2018-03-23T18:56:14.200Z,21.80
2018-03-23T18:58:41.741Z,17.95
2018-03-23T19:01:09.223Z,21.27
2018-03-23T19:03:36.687Z,18.83
2018-03-23T19:06:04.158Z,18.08
2018-03-23T19:08:31.618Z,19.20
2018-03-23T19:10:59.058Z,22.10
2018-03-23T19:13:26.682Z,17.70
2018-03-23T19:15:55.044Z,16.50
2018-03-23T19:18:22.499Z,16.95
2018-03-23T19:20:49.955Z,18.50
2018-03-23T19:23:17.387Z,20.92
2018-03-23T19:25:45.623Z,17.97
2018-03-23T19:28:13.061Z,19.02
2018-03-23T19:30:40.494Z,22.30
2018-03-23T19:33:08.080Z,17.65
2018-03-23T19:35:35.503Z,18.20
2018-03-23T19:38:03.718Z,16.20
2018-03-23T19:40:31.138Z,16.40
2018-03-23T19:42:59.357Z,15.15
2018-03-23T19:45:26.810Z,16.50
2018-03-23T19:47:54.254Z,16.40
2018-03-23T19:50:21.711Z,17.00
2018-03-23T19:52:49.130Z,17.40
2018-03-23T19:55:17.349Z,17.17
2018-03-23T19:57:44.840Z,16.65
2018-03-23T20:00:12.406Z,16.25
2018-03-23T20:02:39.954Z,16.23
2018-03-23T20:05:07.392Z,19.97
2018-03-23T20:07:34.827Z,17.20
2018-03-23T20:10:02.321Z,17.10
2018-03-23T20:12:29.759Z,17.33
2018-03-23T20:14:57.191Z,17.55
2018-03-23T20:17:30.432Z,17.02
2018-03-23T20:19:57.899Z,16.67
2018-03-23T20:22:25.343Z,16.47
2018-03-23T20:24:53.663Z,15.95
2018-03-23T20:27:27.554Z,16.95
2018-03-23T20:29:55.781Z,16.27
2018-03-23T20:32:28.955Z,16.75
2018-03-23T20:34:56.407Z,17.08
2018-03-23T20:37:23.848Z,17.77
2018-03-23T20:39:51.274Z,18.70
2018-03-23T20:42:19.528Z,17.35
2018-03-23T20:44:47.015Z,16.27
2018-03-23T20:47:15.257Z,18.42
2018-03-23T20:49:42.650Z,17.20
2018-03-23T20:52:10.845Z,18.17
2018-03-23T20:54:38.302Z,17.12
2018-03-23T20:57:05.814Z,17.30
2018-03-23T20:59:33.428Z,18.67
2018-03-23T21:02:00.863Z,16.27
2018-03-23T21:04:28.323Z,16.35
2018-03-23T21:06:55.830Z,12.90
2018-03-23T21:09:23.280Z,15.02
2018-03-23T21:11:51.534Z,15.00
2018-03-23T21:14:19.087Z,15.70
2018-03-23T21:16:46.511Z,14.38
2018-03-23T21:19:14.818Z,16.55
2018-03-23T21:21:42.263Z,15.70
2018-03-23T21:24:09.709Z,13.80
2018-03-23T21:26:37.196Z,14.60
2018-03-23T21:29:04.615Z,15.10
2018-03-23T21:31:32.882Z,14.20
2018-03-23T21:34:01.195Z,15.30
2018-03-23T21:36:28.677Z,14.15
2018-03-23T21:38:56.210Z,13.48
2018-03-23T21:41:23.643Z,13.18
2018-03-23T21:43:51.138Z,12.82
2018-03-23T21:46:18.602Z,13.20
2018-03-23T21:48:46.058Z,13.60
2018-03-23T21:51:13.512Z,15.65
2018-03-23T21:53:41.059Z,14.07
2018-03-23T21:56:08.498Z,15.98
2018-03-23T21:58:35.966Z,15.00
2018-03-23T22:01:03.543Z,15.15
2018-03-23T22:03:30.986Z,16.95
2018-03-23T22:05:58.563Z,16.45
2018-03-23T22:08:26.012Z,14.63
2018-03-23T22:10:53.449Z,13.40
2018-03-23T22:13:20.904Z,14.37
2018-03-23T22:15:48.374Z,14.98
2018-03-23T22:18:15.920Z,13.73
2018-03-23T22:20:43.350Z,16.83
2018-03-23T22:23:10.787Z,13.62
2018-03-23T22:25:39.006Z,11.75
2018-03-23T22:28:06.436Z,13.20
2018-03-23T22:30:34.658Z,13.97
2018-03-23T22:33:02.094Z,12.50
2018-03-23T22:35:29.651Z,13.57
2018-03-23T22:37:57.099Z,14.45
2018-03-23T22:40:24.563Z,11.70
2018-03-23T22:42:52.059Z,11.95
2018-03-23T22:45:19.516Z,12.05
2018-03-23T22:47:47.062Z,13.25
2018-03-23T22:50:14.555Z,12.93
2018-03-23T22:52:41.991Z,11.90
2018-03-23T22:55:09.419Z,14.47
2018-03-23T22:57:36.864Z,13.20
2018-03-23T23:00:04.292Z,12.40
2018-03-23T23:02:32.502Z,13.10
2018-03-23T23:04:59.963Z,11.65
2018-03-23T23:07:27.411Z,12.57
2018-03-23T23:09:54.895Z,13.80
2018-03-23T23:12:22.523Z,13.70
2018-03-23T23:14:50.109Z,11.73
2018-03-23T23:17:17.559Z,12.23
2018-03-23T23:19:45.007Z,12.27
2018-03-23T23:22:12.550Z,12.02
2018-03-23T23:24:39.973Z,13.23
2018-03-23T23:27:08.175Z,13.93
2018-03-23T23:29:35.626Z,12.75
2018-03-23T23:32:03.077Z,12.88
2018-03-23T23:34:30.518Z,11.45
2018-03-23T23:36:58.749Z,12.07
2018-03-23T23:39:26.186Z,11.88
2018-03-23T23:41:53.638Z,11.80
2018-03-23T23:44:21.115Z,12.18
2018-03-23T23:46:48.541Z,12.55
2018-03-23T23:49:15.979Z,13.20
2018-03-23T23:51:43.460Z,12.07
2018-03-23T23:54:10.902Z,13.70
2018-03-23T23:56:38.373Z,13.30
2018-03-23T23:59:05.828Z,12.68
